Time;durP1;ratioP1;P1;durP2;ratioP2;P2;SDS_P1;SDS_P2;PMS_P1;PMS_P2;Temp;Humidity;BMP_temperature;BMP_pressure;BME280_temperature;BME280_humidity;BME280_pressure;Samples;Min_cycle;Max_cycle;Signal;HPM_P1;HPM_P2
2022/03/21 00:02:14;;;;;;;23.33;12.17;;;;;8.50;102412.00;;;;5092394;28;20760;-68
2022/03/21 00:05:00;;;;;;;24.07;12.33;;;;;8.50;102420.00;;;;5100441;28;20775;-69
2022/03/21 00:07:49;;;;;;;23.23;11.97;;;;;8.50;102410.00;;;;5101385;27;20281;-66
2022/03/21 00:10:36;;;;;;;21.90;11.67;;;;;8.50;102409.00;;;;5087781;28;20606;-68
2022/03/21 00:13:22;;;;;;;20.73;11.60;;;;;8.20;102412.00;;;;5084988;28;21007;-68
2022/03/21 00:16:09;;;;;;;23.23;11.30;;;;;8.10;102415.00;;;;5071313;28;20224;-68
2022/03/21 00:18:55;;;;;;;22.43;11.70;;;;;8.20;102426.00;;;;5082341;28;20231;-65
2022/03/21 00:21:41;;;;;;;22.33;11.57;;;;;8.40;102408.00;;;;5063307;28;20684;-66
2022/03/21 00:24:29;;;;;;;20.90;11.70;;;;;8.40;102415.00;;;;5056085;28;20239;-67
2022/03/21 00:27:15;;;;;;;20.67;11.10;;;;;8.30;102410.00;;;;5053481;28;20286;-67
2022/03/21 00:30:02;;;;;;;22.10;11.60;;;;;8.40;102403.00;;;;5056032;28;20230;-69
2022/03/21 00:32:48;;;;;;;25.87;11.47;;;;;8.30;102407.00;;;;5081228;28;20247;-68
2022/03/21 00:35:35;;;;;;;22.53;11.43;;;;;8.40;102415.00;;;;5074879;28;20874;-67
2022/03/21 00:38:22;;;;;;;24.73;11.93;;;;;8.30;102426.00;;;;5075765;28;20729;-66
2022/03/21 00:41:10;;;;;;;28.17;12.37;;;;;8.30;102437.00;;;;5070386;28;21019;-67
2022/03/21 00:43:57;;;;;;;26.20;11.73;;;;;8.30;102431.00;;;;5084506;28;20577;-67
2022/03/21 00:46:43;;;;;;;21.67;10.70;;;;;8.10;102434.00;;;;5079578;28;20298;-67
2022/03/21 00:49:29;;;;;;;21.73;12.10;;;;;8.10;102433.00;;;;5081974;28;20235;-68
2022/03/21 00:52:16;;;;;;;24.60;11.37;;;;;8.20;102448.00;;;;5084354;28;20230;-67
2022/03/21 00:55:02;;;;;;;23.93;11.67;;;;;8.10;102454.00;;;;5084379;28;21006;-68
2022/03/21 00:57:50;;;;;;;21.13;11.10;;;;;8.00;102448.00;;;;5081801;28;20228;-65
2022/03/21 01:00:36;;;;;;;24.93;11.87;;;;;8.10;102434.00;;;;5084146;28;20232;-68
2022/03/21 01:03:23;;;;;;;22.47;11.60;;;;;8.10;102448.00;;;;5080465;28;20639;-67
2022/03/21 01:06:10;;;;;;;21.53;12.47;;;;;8.10;102441.00;;;;5084697;28;20362;-68
2022/03/21 01:08:56;;;;;;;24.63;11.93;;;;;8.10;102444.00;;;;5084348;28;20790;-67
2022/03/21 01:11:43;;;;;;;23.17;11.67;;;;;7.90;102439.00;;;;5084271;28;20872;-69
2022/03/21 01:14:32;;;;;;;19.63;11.03;;;;;7.90;102442.00;;;;5084330;28;20240;-69
2022/03/21 01:17:18;;;;;;;23.77;12.77;;;;;8.00;102444.00;;;;5101951;28;20227;-66
2022/03/21 01:20:06;;;;;;;22.87;11.20;;;;;7.80;102429.00;;;;5100848;28;20771;-67
2022/03/21 01:22:52;;;;;;;24.33;11.70;;;;;7.90;102440.00;;;;5101787;28;20222;-66
2022/03/21 01:25:38;;;;;;;19.77;10.97;;;;;7.80;102451.00;;;;5097700;28;20222;-66
2022/03/21 01:28:25;;;;;;;28.73;12.63;;;;;7.70;102437.00;;;;5100954;28;20249;-65
2022/03/21 01:31:12;;;;;;;21.13;11.80;;;;;7.70;102445.00;;;;5083199;28;20295;-66
2022/03/21 01:33:58;;;;;;;25.03;12.63;;;;;7.60;102441.00;;;;5103380;28;20234;-67
2022/03/21 01:36:44;;;;;;;21.00;11.07;;;;;7.60;102444.00;;;;5098305;28;20721;-67
2022/03/21 01:39:30;;;;;;;25.87;12.17;;;;;7.60;102447.00;;;;5104643;28;20894;-66
2022/03/21 01:42:17;;;;;;;21.40;12.23;;;;;7.60;102444.00;;;;5104400;28;20292;-66
2022/03/21 01:45:05;;;;;;;22.83;12.23;;;;;7.70;102429.00;;;;5092925;28;20227;-66
2022/03/21 01:47:53;;;;;;;23.63;11.23;;;;;7.60;102442.00;;;;5075598;28;20277;-67
2022/03/21 01:50:40;;;;;;;24.67;11.40;;;;;7.60;102427.00;;;;5073724;28;20227;-66
2022/03/21 01:56:30;;;;;;;22.47;9.83;;;;;7.70;102436.00;;;;5048694;28;20248;-67
2022/03/21 01:59:19;;;;;;;19.00;9.20;;;;;7.50;102428.00;;;;5051973;28;20224;-67
2022/03/21 02:02:06;;;;;;;17.93;8.70;;;;;7.60;102429.00;;;;5079864;28;20286;-67
2022/03/21 02:04:54;;;;;;;14.37;7.73;;;;;7.60;102425.00;;;;5083598;28;20839;-68
2022/03/21 02:07:40;;;;;;;17.43;7.83;;;;;7.60;102431.00;;;;5085851;28;20233;-66
2022/03/21 02:10:27;;;;;;;17.60;9.20;;;;;7.60;102418.00;;;;5087477;28;20858;-67
2022/03/21 02:13:15;;;;;;;17.97;8.40;;;;;7.70;102431.00;;;;5080485;28;20223;-66
2022/03/21 02:16:02;;;;;;;20.67;8.87;;;;;7.70;102421.00;;;;5103607;27;20320;-69
2022/03/21 02:18:49;;;;;;;15.43;9.17;;;;;7.70;102426.00;;;;5086832;28;20327;-66
2022/03/21 02:21:49;;;;;;;17.03;9.13;;;;;7.70;102430.00;;;;5087545;28;20269;-68
2022/03/21 02:24:41;;;;;;;15.07;9.57;;;;;7.70;102420.00;;;;5097575;27;20240;-67
2022/03/21 02:27:31;;;;;;;17.40;9.03;;;;;7.70;102419.00;;;;5097445;27;20219;-67
2022/03/21 02:30:18;;;;;;;17.37;8.87;;;;;7.70;102414.00;;;;5088275;28;20227;-67
2022/03/21 02:33:04;;;;;;;17.47;8.43;;;;;7.60;102420.00;;;;5086772;28;20211;-66
2022/03/21 02:35:51;;;;;;;18.40;8.93;;;;;7.70;102398.00;;;;5095904;28;20231;-66
2022/03/21 02:38:38;;;;;;;18.73;9.13;;;;;7.60;102413.00;;;;5107589;28;20252;-65
2022/03/21 02:41:24;;;;;;;15.87;8.77;;;;;7.60;102411.00;;;;5093232;28;20218;-68
2022/03/21 02:44:12;;;;;;;18.17;9.87;;;;;7.70;102419.00;;;;5074126;28;20228;-68
2022/03/21 02:46:59;;;;;;;17.50;8.93;;;;;7.60;102409.00;;;;5087170;28;20266;-67
2022/03/21 02:49:46;;;;;;;18.83;9.80;;;;;7.60;102408.00;;;;5086297;28;20624;-66
2022/03/21 02:52:33;;;;;;;16.40;8.80;;;;;7.60;102410.00;;;;5076083;28;20227;-67
2022/03/21 02:55:19;;;;;;;19.00;9.33;;;;;7.70;102420.00;;;;5094137;28;20219;-66
2022/03/21 02:58:05;;;;;;;14.57;8.57;;;;;7.60;102419.00;;;;5103541;27;20229;-65
2022/03/21 03:00:53;;;;;;;14.87;8.23;;;;;7.60;102414.00;;;;5106730;27;20305;-68
2022/03/21 03:03:40;;;;;;;14.73;8.87;;;;;7.50;102423.00;;;;5104219;28;20235;-68
2022/03/21 03:06:27;;;;;;;16.40;8.83;;;;;7.50;102420.00;;;;5088725;28;20321;-67
2022/03/21 03:09:14;;;;;;;14.97;8.97;;;;;7.50;102421.00;;;;5085835;28;20273;-67
2022/03/21 03:12:00;;;;;;;15.83;8.83;;;;;7.50;102407.00;;;;5079535;28;20239;-67
2022/03/21 03:14:46;;;;;;;14.83;7.73;;;;;7.40;102413.00;;;;5083143;28;20234;-67
2022/03/21 03:17:33;;;;;;;19.40;9.37;;;;;7.30;102404.00;;;;5086284;28;20275;-66
2022/03/21 03:20:21;;;;;;;17.13;8.87;;;;;7.30;102411.00;;;;5072353;28;20602;-67
2022/03/21 03:23:08;;;;;;;17.90;8.77;;;;;7.40;102376.00;;;;5085919;28;20846;-67
2022/03/21 03:25:59;;;;;;;14.90;7.60;;;;;7.30;102417.00;;;;5084452;28;20367;-68
2022/03/21 03:28:46;;;;;;;16.10;8.63;;;;;7.30;102411.00;;;;5104281;27;20239;-67
2022/03/21 03:31:34;;;;;;;15.23;8.07;;;;;7.40;102425.00;;;;5088096;28;20283;-66
2022/03/21 03:34:22;;;;;;;14.33;8.40;;;;;7.30;102424.00;;;;5096325;27;20226;-69
2022/03/21 03:37:08;;;;;;;17.83;9.57;;;;;7.30;102434.00;;;;5095181;27;20717;-67
2022/03/21 03:39:54;;;;;;;19.10;8.47;;;;;7.30;102423.00;;;;5106315;27;20230;-67
2022/03/21 03:42:40;;;;;;;16.83;9.30;;;;;7.40;102420.00;;;;5088534;28;20366;-67
2022/03/21 03:45:27;;;;;;;15.73;8.80;;;;;7.20;102427.00;;;;5082381;28;20223;-67
2022/03/21 03:48:14;;;;;;;17.37;9.00;;;;;7.10;102415.00;;;;5070485;28;20243;-68
2022/03/21 03:51:03;;;;;;;14.10;8.03;;;;;6.90;102424.00;;;;5083058;28;20686;-68
2022/03/21 03:53:50;;;;;;;13.43;7.93;;;;;7.00;102418.00;;;;5082525;28;20298;-68
2022/03/21 03:56:41;;;;;;;15.27;8.63;;;;;6.90;102420.00;;;;5083182;28;20235;-66
2022/03/21 03:59:27;;;;;;;15.73;8.63;;;;;6.80;102421.00;;;;5084346;28;20354;-69
2022/03/21 04:02:13;;;;;;;17.37;8.80;;;;;6.80;102433.00;;;;5090751;28;20611;-66
2022/03/21 04:05:00;;;;;;;18.03;9.23;;;;;6.70;102433.00;;;;5097329;28;20242;-67
2022/03/21 04:07:47;;;;;;;15.93;9.40;;;;;6.60;102431.00;;;;5102352;28;20231;-68
2022/03/21 04:10:34;;;;;;;14.70;8.27;;;;;6.60;102424.00;;;;5102700;28;20604;-67
2022/03/21 04:13:20;;;;;;;15.07;7.77;;;;;6.60;102436.00;;;;5093631;28;20227;-67
2022/03/21 04:16:07;;;;;;;14.77;8.30;;;;;6.40;102433.00;;;;5099199;28;20692;-67
2022/03/21 04:18:53;;;;;;;18.07;8.73;;;;;6.30;102433.00;;;;5097983;28;20277;-68
2022/03/21 04:21:45;;;;;;;16.83;8.77;;;;;6.30;102432.00;;;;5105458;28;20300;-68
2022/03/21 04:24:33;;;;;;;15.10;8.87;;;;;6.20;102428.00;;;;5103040;28;20250;-68
2022/03/21 04:27:20;;;;;;;18.83;9.10;;;;;6.10;102438.00;;;;5093451;28;20539;-67
2022/03/21 04:30:07;;;;;;;19.77;8.90;;;;;6.10;102438.00;;;;5105700;28;20238;-68
2022/03/21 04:32:54;;;;;;;18.17;9.30;;;;;6.10;102437.00;;;;5101128;28;20578;-68
2022/03/21 04:35:41;;;;;;;24.30;8.97;;;;;5.90;102444.00;;;;5095377;28;20268;-68
2022/03/21 04:38:27;;;;;;;16.83;9.17;;;;;6.00;102442.00;;;;5105822;28;20315;-67
2022/03/21 04:41:15;;;;;;;17.17;8.17;;;;;6.00;102433.00;;;;5088552;28;20230;-66
2022/03/21 04:44:02;;;;;;;16.83;8.93;;;;;6.00;102433.00;;;;5105369;28;20256;-65
2022/03/21 04:46:48;;;;;;;14.27;8.20;;;;;6.00;102432.00;;;;5105011;28;20230;-69
2022/03/21 04:49:34;;;;;;;17.07;9.73;;;;;6.20;102441.00;;;;5105154;28;20246;-67
2022/03/21 04:52:20;;;;;;;17.20;9.93;;;;;6.20;102439.00;;;;5090930;28;20275;-69
2022/03/21 04:55:08;;;;;;;14.77;8.57;;;;;6.10;102437.00;;;;5104798;28;20226;-68
2022/03/21 04:58:02;;;;;;;20.47;10.50;;;;;6.00;102437.00;;;;5098894;28;20226;-63
2022/03/21 05:00:49;;;;;;;16.13;9.77;;;;;6.10;102434.00;;;;5104726;28;20247;-69
2022/03/21 05:03:35;;;;;;;19.53;9.07;;;;;6.10;102439.00;;;;5094476;28;20729;-68
2022/03/21 05:06:22;;;;;;;21.73;10.10;;;;;6.30;102440.00;;;;5088677;28;20222;-68
2022/03/21 05:09:08;;;;;;;18.70;9.90;;;;;6.20;102439.00;;;;5100410;27;20253;-68
2022/03/21 05:11:54;;;;;;;19.63;9.80;;;;;6.20;102451.00;;;;5102369;28;20308;-67
2022/03/21 05:14:42;;;;;;;19.80;9.90;;;;;6.20;102449.00;;;;5105006;28;20257;-69
2022/03/21 05:17:29;;;;;;;17.70;9.50;;;;;6.20;102457.00;;;;5089836;28;20230;-70
2022/03/21 05:20:16;;;;;;;18.90;9.43;;;;;6.20;102457.00;;;;5086870;28;20223;-68
2022/03/21 05:32:15;;;;;;;21.17;9.73;;;;;6.20;102459.00;;;;5082012;28;20293;-68
2022/03/21 05:38:06;;;;;;;16.30;9.23;;;;;6.10;102466.00;;;;5087669;28;20273;-68
2022/03/21 05:40:56;;;;;;;18.53;9.70;;;;;6.00;102465.00;;;;5075155;28;20308;-69
2022/03/21 05:43:42;;;;;;;17.07;9.40;;;;;6.00;102456.00;;;;5062146;28;20304;-68
2022/03/21 05:46:28;;;;;;;17.57;9.97;;;;;6.00;102463.00;;;;5086869;28;20325;-67
2022/03/21 05:49:16;;;;;;;17.67;9.40;;;;;5.90;102467.00;;;;5088107;28;20222;-66
2022/03/21 05:52:02;;;;;;;18.33;9.87;;;;;5.80;102472.00;;;;5071734;28;20235;-68
2022/03/21 05:54:48;;;;;;;16.63;9.17;;;;;5.90;102474.00;;;;5069304;28;20733;-67
2022/03/21 05:57:34;;;;;;;17.07;9.57;;;;;5.90;102465.00;;;;5077086;28;20722;-68
2022/03/21 06:00:21;;;;;;;16.93;8.93;;;;;5.90;102467.00;;;;5087908;28;20226;-67
2022/03/21 06:03:08;;;;;;;19.57;9.73;;;;;5.90;102471.00;;;;5082674;28;20244;-67
2022/03/21 06:05:57;;;;;;;16.40;8.93;;;;;5.80;102486.00;;;;5088165;28;20234;-69
2022/03/21 06:08:44;;;;;;;21.67;9.90;;;;;5.80;102475.00;;;;5108756;28;20238;-66
2022/03/21 06:11:30;;;;;;;17.97;9.47;;;;;5.80;102478.00;;;;5092662;28;20361;-68
2022/03/21 06:14:18;;;;;;;22.93;10.00;;;;;5.80;102482.00;;;;5087724;28;20602;-70
2022/03/21 06:17:04;;;;;;;15.37;9.43;;;;;5.70;102492.00;;;;5088401;28;20909;-66
2022/03/21 06:19:51;;;;;;;17.27;10.03;;;;;5.90;102493.00;;;;5082777;28;20235;-67
2022/03/21 06:22:39;;;;;;;19.13;10.10;;;;;5.90;102491.00;;;;5095021;27;20778;-67
2022/03/21 06:25:26;;;;;;;18.00;10.03;;;;;6.00;102499.00;;;;5088783;28;20296;-68
2022/03/21 06:28:12;;;;;;;17.67;10.37;;;;;6.10;102515.00;;;;5106582;28;20299;-67
2022/03/21 06:30:58;;;;;;;18.80;9.87;;;;;6.00;102498.00;;;;5098436;27;20251;-66
2022/03/21 06:33:45;;;;;;;19.70;10.50;;;;;6.20;102518.00;;;;5107975;28;20234;-67
2022/03/21 06:36:31;;;;;;;19.83;9.87;;;;;6.20;102514.00;;;;5100343;28;20239;-68
2022/03/21 06:39:19;;;;;;;19.37;10.43;;;;;6.30;102512.00;;;;5106520;28;20729;-69
2022/03/21 06:42:06;;;;;;;22.27;10.53;;;;;6.20;102512.00;;;;5107238;28;20360;-69
2022/03/21 06:44:53;;;;;;;22.83;11.60;;;;;6.30;102506.00;;;;5092327;28;20736;-69
2022/03/21 06:47:39;;;;;;;22.57;11.27;;;;;6.30;102513.00;;;;5095401;28;20234;-67
2022/03/21 06:50:26;;;;;;;18.93;10.90;;;;;6.40;102508.00;;;;5092021;28;20309;-68
2022/03/21 06:53:13;;;;;;;18.73;11.00;;;;;6.50;102517.00;;;;5088453;28;20719;-67
2022/03/21 06:56:00;;;;;;;20.73;11.47;;;;;6.60;102520.00;;;;5084965;28;20857;-68
2022/03/21 06:58:46;;;;;;;18.67;11.17;;;;;6.80;102513.00;;;;5085705;28;20239;-70
2022/03/21 07:01:36;;;;;;;22.67;12.53;;;;;6.80;102514.00;;;;5076205;28;20231;-67
2022/03/21 07:04:23;;;;;;;22.10;12.13;;;;;6.90;102519.00;;;;5071128;28;20223;-68
2022/03/21 07:07:09;;;;;;;19.93;12.17;;;;;7.00;102515.00;;;;5086264;28;20229;-68
2022/03/21 07:09:56;;;;;;;24.10;12.60;;;;;7.00;102512.00;;;;5085200;28;20370;-68
2022/03/21 07:12:43;;;;;;;27.23;13.73;;;;;7.10;102520.00;;;;5083019;28;20350;-70
2022/03/21 07:15:29;;;;;;;26.03;12.10;;;;;7.20;102525.00;;;;5068057;28;20243;-68
2022/03/21 07:18:16;;;;;;;27.63;14.20;;;;;7.30;102524.00;;;;5072574;28;21127;-69
2022/03/21 07:21:03;;;;;;;34.57;14.63;;;;;7.40;102523.00;;;;5086315;28;20307;-69
2022/03/21 07:23:49;;;;;;;25.13;13.27;;;;;7.50;102521.00;;;;5076863;28;20235;-68
2022/03/21 07:26:36;;;;;;;27.73;13.50;;;;;7.70;102533.00;;;;5071809;28;20245;-71
2022/03/21 07:29:23;;;;;;;30.07;14.80;;;;;7.90;102533.00;;;;5097305;28;20920;-69
2022/03/21 07:32:10;;;;;;;30.73;15.07;;;;;7.90;102534.00;;;;5088290;28;20336;-69
2022/03/21 07:34:56;;;;;;;28.97;13.60;;;;;8.00;102541.00;;;;5047312;28;1071857;-71
2022/03/21 07:37:43;;;;;;;26.77;14.30;;;;;8.00;102541.00;;;;5095953;28;20713;-70
2022/03/21 07:40:30;;;;;;;26.37;14.60;;;;;8.10;102537.00;;;;5106661;28;20228;-68
2022/03/21 07:43:17;;;;;;;28.53;14.50;;;;;8.20;102530.00;;;;5102727;28;20232;-72
2022/03/21 07:49:09;;;;;;;33.43;15.60;;;;;8.50;102543.00;;;;5091624;28;20233;-69
2022/03/21 07:51:55;;;;;;;28.83;16.03;;;;;8.60;102551.00;;;;5095836;28;20248;-67
2022/03/21 07:54:42;;;;;;;32.87;15.13;;;;;8.60;102547.00;;;;5068294;28;20231;-68
2022/03/21 07:57:28;;;;;;;35.33;16.10;;;;;8.90;102544.00;;;;5071021;28;20658;-68
2022/03/21 08:00:16;;;;;;;30.90;15.93;;;;;8.90;102548.00;;;;5067539;28;20250;-68
2022/03/21 08:03:03;;;;;;;29.57;16.13;;;;;8.90;102546.00;;;;5077282;28;20230;-67
2022/03/21 08:05:50;;;;;;;31.47;16.73;;;;;9.20;102552.00;;;;5077150;28;20245;-68
2022/03/21 08:08:36;;;;;;;34.87;17.43;;;;;9.20;102544.00;;;;5079512;28;20608;-69
2022/03/21 08:11:23;;;;;;;33.10;16.67;;;;;9.30;102550.00;;;;5072764;28;20306;-69
2022/03/21 08:14:09;;;;;;;35.60;17.53;;;;;9.30;102551.00;;;;5084717;28;20238;-68
2022/03/21 08:16:55;;;;;;;28.80;16.67;;;;;9.60;102559.00;;;;5080074;28;20273;-67
2022/03/21 08:19:43;;;;;;;32.27;16.43;;;;;9.70;102548.00;;;;5081316;28;20798;-70
2022/03/21 08:22:30;;;;;;;36.63;18.03;;;;;9.80;102560.00;;;;5070619;28;20312;-68
2022/03/21 08:25:17;;;;;;;31.37;17.03;;;;;9.90;102561.00;;;;5085282;28;20822;-69
2022/03/21 08:28:05;;;;;;;30.53;14.87;;;;;10.00;102556.00;;;;5081998;28;20235;-68
2022/03/21 08:30:51;;;;;;;31.60;16.03;;;;;10.10;102555.00;;;;5086730;28;20307;-68
2022/03/21 08:33:37;;;;;;;29.43;15.07;;;;;10.10;102568.00;;;;5075812;28;20605;-68
2022/03/21 08:36:25;;;;;;;31.17;16.57;;;;;10.30;102551.00;;;;5089443;28;20621;-71
2022/03/21 08:39:11;;;;;;;28.17;15.70;;;;;10.30;102553.00;;;;5102479;28;20289;-69
2022/03/21 08:41:57;;;;;;;32.17;16.07;;;;;10.40;102549.00;;;;5105414;28;20752;-69
2022/03/21 08:44:43;;;;;;;28.03;15.43;;;;;10.50;102558.00;;;;5067189;28;20243;-69
2022/03/21 08:47:29;;;;;;;28.60;14.53;;;;;10.70;102553.00;;;;5072830;28;20763;-69
2022/03/21 08:50:16;;;;;;;25.57;14.40;;;;;10.90;102558.00;;;;5100735;27;20734;-68
2022/03/21 08:53:03;;;;;;;26.43;13.93;;;;;11.10;102555.00;;;;5105022;28;20238;-67
2022/03/21 08:55:50;;;;;;;22.63;12.73;;;;;11.20;102553.00;;;;5103347;28;20243;-69
2022/03/21 08:58:36;;;;;;;21.83;12.77;;;;;11.30;102552.00;;;;5088008;28;20315;-64
2022/03/21 09:01:23;;;;;;;23.73;11.93;;;;;11.40;102562.00;;;;5104753;28;20226;-67
2022/03/21 09:04:10;;;;;;;26.40;13.97;;;;;11.70;102550.00;;;;5104729;28;20234;-68
2022/03/21 09:06:57;;;;;;;25.57;12.63;;;;;11.90;102540.00;;;;5104971;27;20292;-67
2022/03/21 09:09:44;;;;;;;26.77;13.30;;;;;12.10;102548.00;;;;5067884;28;20232;-67
2022/03/21 09:12:32;;;;;;;22.57;14.03;;;;;12.20;102544.00;;;;5095381;28;20238;-69
2022/03/21 09:15:18;;;;;;;25.27;13.43;;;;;12.30;102550.00;;;;5082715;28;20734;-69
2022/03/21 09:18:05;;;;;;;20.70;11.10;;;;;12.40;102551.00;;;;5075112;28;20226;-70
2022/03/21 09:20:51;;;;;;;22.03;12.00;;;;;12.50;102555.00;;;;5101170;28;20230;-67
2022/03/21 09:23:42;;;;;;;21.80;12.10;;;;;12.60;102547.00;;;;5092294;28;20230;-66
2022/03/21 09:26:29;;;;;;;21.17;12.43;;;;;12.70;102543.00;;;;5105063;28;20276;-67
2022/03/21 09:29:16;;;;;;;23.83;12.33;;;;;12.90;102547.00;;;;5103856;28;20222;-69
2022/03/21 09:32:02;;;;;;;25.10;12.23;;;;;13.00;102539.00;;;;5084567;28;20230;-68
2022/03/21 09:34:49;;;;;;;22.57;11.20;;;;;13.10;102555.00;;;;5095245;28;20230;-66
2022/03/21 09:37:36;;;;;;;21.77;11.93;;;;;13.30;102547.00;;;;5073498;28;20385;-68
2022/03/21 09:40:23;;;;;;;21.97;11.73;;;;;13.50;102543.00;;;;5083837;28;20739;-69
2022/03/21 09:43:12;;;;;;;22.00;11.77;;;;;13.50;102542.00;;;;5084056;28;20717;-69
2022/03/21 09:45:58;;;;;;;20.53;11.00;;;;;13.40;102534.00;;;;5084516;28;20224;-70
2022/03/21 09:48:47;;;;;;;19.10;10.27;;;;;13.60;102537.00;;;;5075139;28;20232;-68
2022/03/21 09:51:34;;;;;;;20.37;10.73;;;;;14.10;102528.00;;;;5084064;28;20591;-70
2022/03/21 09:54:20;;;;;;;21.40;11.97;;;;;14.20;102537.00;;;;5081422;28;20233;-69
2022/03/21 09:57:07;;;;;;;21.30;10.67;;;;;14.30;102535.00;;;;5080891;28;20227;-70
2022/03/21 09:59:55;;;;;;;18.83;10.47;;;;;14.50;102531.00;;;;5080016;28;20253;-70
2022/03/21 10:02:42;;;;;;;19.37;10.60;;;;;14.60;102537.00;;;;5084298;28;20584;-71
2022/03/21 10:05:34;;;;;;;22.03;11.60;;;;;14.60;102516.00;;;;5084319;28;20241;-72
2022/03/21 10:08:22;;;;;;;21.63;11.40;;;;;14.70;102519.00;;;;5072277;28;20232;-71
2022/03/21 10:11:08;;;;;;;18.87;10.83;;;;;14.90;102528.00;;;;5070157;28;20227;-66
2022/03/21 10:13:54;;;;;;;16.47;9.27;;;;;15.00;102525.00;;;;5099706;28;20238;-70
2022/03/21 10:16:50;;;;;;;21.73;11.07;;;;;15.10;102520.00;;;;5082112;28;20285;-68
2022/03/21 10:19:45;;;;;;;21.27;10.83;;;;;15.20;102530.00;;;;5071706;28;20228;-71
2022/03/21 10:22:43;;;;;;;18.03;9.97;;;;;15.10;102522.00;;;;5071543;28;20245;-72
2022/03/21 10:25:31;;;;;;;22.90;11.33;;;;;15.30;102519.00;;;;5070525;28;20366;-68
2022/03/21 10:28:34;;;;;;;18.73;10.30;;;;;15.50;102532.00;;;;5075634;28;20226;-70
2022/03/21 10:31:34;;;;;;;16.97;10.17;;;;;15.50;102523.00;;;;5073575;28;20718;-69
2022/03/21 10:34:29;;;;;;;22.93;10.80;;;;;15.70;102520.00;;;;5073648;28;20278;-70
2022/03/21 10:37:15;;;;;;;19.90;10.07;;;;;15.90;102529.00;;;;5104800;28;20671;-70
2022/03/21 10:40:02;;;;;;;17.70;9.77;;;;;16.10;102522.00;;;;5107566;28;20392;-69
2022/03/21 10:42:57;;;;;;;17.67;9.87;;;;;16.40;102529.00;;;;5095169;28;20280;-72
2022/03/21 10:45:47;;;;;;;19.30;9.43;;;;;16.50;102532.00;;;;5093843;27;20978;-73
2022/03/21 10:48:35;;;;;;;16.70;9.93;;;;;16.60;102532.00;;;;5091312;28;20238;-71
2022/03/21 10:51:23;;;;;;;18.70;9.53;;;;;16.60;102528.00;;;;5081350;28;20627;-68
2022/03/21 10:54:09;;;;;;;18.83;10.57;;;;;16.90;102533.00;;;;5080330;28;20608;-68
2022/03/21 10:56:56;;;;;;;17.30;10.13;;;;;17.10;102533.00;;;;5086381;28;20306;-69
2022/03/21 10:59:43;;;;;;;17.87;10.20;;;;;17.20;102521.00;;;;5065487;28;20228;-68
2022/03/21 11:02:29;;;;;;;16.80;8.93;;;;;17.10;102526.00;;;;5086461;28;20839;-71
2022/03/21 11:05:17;;;;;;;17.67;10.30;;;;;17.20;102529.00;;;;5086446;28;20300;-69
2022/03/21 11:08:07;;;;;;;19.20;9.73;;;;;17.40;102520.00;;;;5072563;28;20232;-71
2022/03/21 11:10:53;;;;;;;19.70;9.87;;;;;17.50;102521.00;;;;5049066;28;20984;-72
2022/03/21 11:13:40;;;;;;;18.83;10.57;;;;;17.70;102519.00;;;;5069484;27;20240;-70
2022/03/21 11:16:28;;;;;;;17.90;10.13;;;;;17.70;102514.00;;;;5076828;28;20320;-74
2022/03/21 11:19:14;;;;;;;19.57;10.30;;;;;17.70;102518.00;;;;5095547;28;20230;-69
2022/03/21 11:22:01;;;;;;;16.93;10.23;;;;;17.90;102515.00;;;;5104443;28;20303;-71
2022/03/21 11:24:49;;;;;;;18.43;10.23;;;;;18.00;102524.00;;;;5093895;27;20275;-66
2022/03/21 11:28:07;;;;;;;17.87;10.23;;;;;18.00;102515.00;;;;5090726;28;20766;-71
2022/03/21 11:31:32;;;;;;;24.53;11.23;;;;;18.20;102518.00;;;;5105932;27;21166;-69
2022/03/21 11:34:32;;;;;;;20.63;11.17;;;;;18.40;102513.00;;;;5085691;28;20234;-69
2022/03/21 11:37:26;;;;;;;19.67;11.43;;;;;18.40;102516.00;;;;5102257;27;20300;-68
2022/03/21 11:40:32;;;;;;;21.33;9.90;;;;;18.20;102511.00;;;;5093222;28;20261;-68
2022/03/21 11:43:26;;;;;;;24.07;10.60;;;;;18.50;102513.00;;;;5088019;28;20342;-68
2022/03/21 11:46:30;;;;;;;17.93;10.33;;;;;18.40;102510.00;;;;5085835;28;20662;-68
2022/03/21 11:49:45;;;;;;;19.00;10.37;;;;;18.60;102516.00;;;;5086835;28;20349;-69
2022/03/21 11:53:04;;;;;;;17.13;9.80;;;;;18.60;102512.00;;;;5086149;28;20899;-71
2022/03/21 11:55:52;;;;;;;16.33;9.40;;;;;18.80;102511.00;;;;5103609;27;20234;-69
2022/03/21 11:58:52;;;;;;;17.97;9.43;;;;;19.00;102506.00;;;;5070525;28;20753;-70
2022/03/21 12:01:42;;;;;;;17.63;9.27;;;;;19.10;102508.00;;;;5071114;28;20599;-68
2022/03/21 12:04:30;;;;;;;17.83;8.93;;;;;19.00;102497.00;;;;5085983;28;20234;-68
2022/03/21 12:07:28;;;;;;;16.30;9.43;;;;;19.40;102514.00;;;;5079324;28;20239;-69
2022/03/21 12:10:37;;;;;;;16.40;8.87;;;;;19.50;102504.00;;;;5085208;28;20228;-65
2022/03/21 12:13:25;;;;;;;15.30;8.97;;;;;19.60;102506.00;;;;5084910;28;20306;-67
2022/03/21 12:16:21;;;;;;;14.53;8.53;;;;;19.70;102491.00;;;;5075796;28;20223;-69
2022/03/21 12:19:08;;;;;;;15.43;8.57;;;;;19.80;102495.00;;;;5082223;28;20745;-69
2022/03/21 12:22:27;;;;;;;14.60;8.93;;;;;19.70;102492.00;;;;5071964;28;20218;-69
2022/03/21 12:25:17;;;;;;;14.53;8.43;;;;;19.90;102504.00;;;;5052055;28;20698;-70
2022/03/21 12:28:20;;;;;;;15.60;9.30;;;;;19.90;102490.00;;;;5067672;28;20232;-68
2022/03/21 12:31:23;;;;;;;16.13;8.90;;;;;20.10;102495.00;;;;5076884;28;20229;-69
2022/03/21 12:34:37;;;;;;;20.87;8.77;;;;;20.40;102486.00;;;;5072682;28;20718;-68
2022/03/21 12:37:28;;;;;;;13.97;8.70;;;;;20.30;102482.00;;;;5101815;28;20237;-68
2022/03/21 12:40:16;;;;;;;17.60;8.67;;;;;20.50;102489.00;;;;5087281;28;20238;-68
2022/03/21 12:43:05;;;;;;;14.73;8.00;;;;;20.40;102499.00;;;;5085648;28;20277;-68
2022/03/21 12:45:58;;;;;;;14.53;7.67;;;;;20.60;102493.00;;;;5072397;28;20296;-68
2022/03/21 12:48:48;;;;;;;10.80;6.53;;;;;20.60;102484.00;;;;5070218;28;20230;-68
2022/03/21 12:51:37;;;;;;;13.80;7.37;;;;;20.40;102487.00;;;;5084476;28;20234;-69
2022/03/21 12:54:47;;;;;;;12.37;6.87;;;;;20.70;102483.00;;;;5076271;28;20230;-69
2022/03/21 12:57:33;;;;;;;11.63;7.13;;;;;20.80;102474.00;;;;5084726;28;20592;-70
2022/03/21 13:00:21;;;;;;;15.27;7.20;;;;;21.00;102490.00;;;;5079033;28;20229;-67
2022/03/21 13:03:08;;;;;;;12.27;6.87;;;;;20.70;102493.00;;;;5084945;28;20680;-69
2022/03/21 13:12:05;;;;;;;9.80;6.33;;;;;21.10;102482.00;;;;5096399;28;20622;-69
2022/03/21 13:15:00;;;;;;;11.23;6.70;;;;;21.00;102480.00;;;;5073040;28;20318;-71
2022/03/21 13:17:49;;;;;;;12.07;7.00;;;;;21.50;102478.00;;;;5065579;28;20246;-69
2022/03/21 13:20:41;;;;;;;8.93;5.77;;;;;21.70;102480.00;;;;5103810;28;20249;-69
2022/03/21 13:23:28;;;;;;;11.17;6.43;;;;;21.40;102475.00;;;;5104384;28;20299;-69
2022/03/21 13:26:17;;;;;;;10.07;6.43;;;;;21.50;102484.00;;;;5086803;28;20226;-69
2022/03/21 13:29:08;;;;;;;15.53;6.73;;;;;21.70;102480.00;;;;5074041;28;20227;-68
2022/03/21 13:31:56;;;;;;;14.00;6.63;;;;;21.20;102465.00;;;;5070644;28;20948;-70
2022/03/21 13:34:48;;;;;;;10.17;6.00;;;;;21.10;102472.00;;;;5092482;28;20239;-73
2022/03/21 13:37:35;;;;;;;8.20;5.83;;;;;21.20;102463.00;;;;5110115;28;20238;-75
2022/03/21 13:40:27;;;;;;;10.90;6.50;;;;;21.50;102468.00;;;;5111132;28;20258;-72
2022/03/21 13:43:17;;;;;;;9.97;5.53;;;;;21.20;102456.00;;;;5113425;28;20227;-73
2022/03/21 13:46:04;;;;;;;10.73;5.90;;;;;21.10;102466.00;;;;5104985;28;20238;-72
2022/03/21 13:48:55;;;;;;;9.70;6.00;;;;;21.50;102465.00;;;;5121824;28;20210;-72
2022/03/21 13:51:43;;;;;;;10.17;6.33;;;;;21.50;102458.00;;;;5117714;28;20311;-73
2022/03/21 13:54:48;;;;;;;9.80;4.93;;;;;21.50;102461.00;;;;5124529;28;20285;-70
2022/03/21 13:57:45;;;;;;;9.60;5.00;;;;;21.20;102460.00;;;;5126349;28;20242;-69
2022/03/21 14:00:35;;;;;;;7.40;4.87;;;;;21.30;102456.00;;;;5123261;28;20222;-74
2022/03/21 14:03:33;;;;;;;9.90;5.50;;;;;21.60;102468.00;;;;5085105;28;20222;-68
2022/03/21 14:06:20;;;;;;;13.37;7.27;;;;;21.90;102463.00;;;;5085319;28;20716;-70
2022/03/21 14:09:28;;;;;;;9.63;6.97;;;;;21.90;102464.00;;;;5107745;27;20276;-69
2022/03/21 14:12:14;;;;;;;8.73;5.80;;;;;22.00;102456.00;;;;5087705;28;20235;-71